saab92x.com - Over 10% of all 9-2x owners registered

Saab92x.com is dedicated to the discussion of the Saab 9-2x sport wagon, based on the Subaru WRX.
Please register or login to post.

Welcome to Saab92x.com!
Saab92X.com is the premier Saab92X forum on the internet. Registered Users do not see the above ads.Please Register - It's Free!
  • Home  
  • » Technical Discussion

Technical Discussion

Topic Replies Views Last post
Bulbs by mhaggin
7 1370 2015-10-22 00:27:01 by mhaggin
17 1101 2015-10-21 00:21:44 by Homyality
3 661 2015-10-17 17:21:01 by elislider
17 2600 2015-10-17 11:54:59 by deliverator
3 602 2015-09-11 21:39:05 by Badfish
Carpet interchange by Nonlinear
1 353 2015-09-07 20:54:44 by eurocoffee
7 812 2015-09-06 17:36:05 by Matt92x
7 1558 2015-08-12 14:27:47 by krazykarguy
5 840 2015-08-07 15:10:52 by deadhead
6 731 2015-07-18 13:36:14 by Scargo
Cargo mat fitment by Nonlinear
3 770 2015-06-29 15:52:49 by tony_mccue
1 403 2015-06-02 13:05:08 by Skorpion25i
PVC Valve by LuvMyM3
20 3994 2015-05-24 21:36:38 by saabaru805
Oil Change... by RLB  [ 1 2 ]
31 17259 2015-05-21 08:56:41 by straytowel
10 1497 2015-05-19 12:56:49 by Scargo
Let's talk about tires again... by ralphjjr  [ 1 2 ]
45 5471 2015-05-13 22:51:36 by iamchris
17 3578 2015-05-12 23:52:58 by Rodman
5 1355 2015-05-01 21:31:46 by NetG
Door interchangability by Nonlinear
2 544 2015-04-27 19:42:04 by elislider
12 3526 2015-04-27 17:17:32 by itsnotmeitsyou
Oil Filter discussion by HatchSPEED  [ 1 2 ]
25 6696 2015-04-26 22:50:17 by SaabaruRed
Front axles by TSWisla
11 1328 2015-04-23 20:32:41 by thebillsman
1 618 2015-04-20 10:40:26 by drewsro
12 2035 2015-04-17 19:02:04 by pcampagna
2006 Linear clutch kit by nismorx7
4 849 2015-04-10 17:26:17 by elislider
10 1058 2015-04-09 12:33:59 by jessec
3 651 2015-04-05 10:14:50 by itsnotmeitsyou
22 8936 2015-04-05 02:41:48 by d4rkv
Slippage in high rpm's by Yodabode
18 2196 2015-03-25 14:50:18 by iamchris
12 1419 2015-03-06 14:27:16 by elislider
  • Home  
  • » Technical Discussion

Board footer

Site problems, bugs, or questions? Contact Administrator
All content copyright Saab92x.com 2005-2010
SAAB and the SAAB logos are trademarks of Saab Cars USA, Inc.